sensor_id;sensor_type;location;lat;lon;timestamp;P1;durP1;ratioP1;P2;durP2;ratioP2
16800;SDS011;8518;53.236;10.384;2023-08-31T00:00:43;13.80;;;12.47;;
16800;SDS011;8518;53.236;10.384;2023-08-31T00:03:12;14.70;;;13.23;;
16800;SDS011;8518;53.236;10.384;2023-08-31T00:05:40;13.00;;;11.70;;
16800;SDS011;8518;53.236;10.384;2023-08-31T00:08:11;13.83;;;12.53;;
16800;SDS011;8518;53.236;10.384;2023-08-31T00:10:40;14.73;;;13.17;;
16800;SDS011;8518;53.236;10.384;2023-08-31T00:13:06;15.03;;;13.43;;
16800;SDS011;8518;53.236;10.384;2023-08-31T00:15:33;14.90;;;13.40;;
16800;SDS011;8518;53.236;10.384;2023-08-31T00:18:03;14.77;;;13.13;;
16800;SDS011;8518;53.236;10.384;2023-08-31T00:20:33;14.37;;;12.87;;
16800;SDS011;8518;53.236;10.384;2023-08-31T00:23:01;14.57;;;13.07;;
16800;SDS011;8518;53.236;10.384;2023-08-31T00:25:30;14.17;;;12.83;;
16800;SDS011;8518;53.236;10.384;2023-08-31T00:27:56;13.47;;;12.20;;
16800;SDS011;8518;53.236;10.384;2023-08-31T00:30:30;13.70;;;12.43;;
16800;SDS011;8518;53.236;10.384;2023-08-31T00:32:58;15.03;;;13.20;;
16800;SDS011;8518;53.236;10.384;2023-08-31T00:35:27;15.00;;;13.50;;
16800;SDS011;8518;53.236;10.384;2023-08-31T00:37:54;15.00;;;13.40;;
16800;SDS011;8518;53.236;10.384;2023-08-31T00:40:26;14.33;;;12.93;;
16800;SDS011;8518;53.236;10.384;2023-08-31T00:42:53;16.23;;;14.53;;
16800;SDS011;8518;53.236;10.384;2023-08-31T00:45:21;15.03;;;13.53;;
16800;SDS011;8518;53.236;10.384;2023-08-31T00:51:14;15.13;;;13.43;;
16800;SDS011;8518;53.236;10.384;2023-08-31T00:53:43;15.80;;;14.10;;
16800;SDS011;8518;53.236;10.384;2023-08-31T00:59:31;15.43;;;13.60;;
16800;SDS011;8518;53.236;10.384;2023-08-31T01:02:02;15.83;;;14.10;;
16800;SDS011;8518;53.236;10.384;2023-08-31T01:10:51;16.33;;;14.10;;
16800;SDS011;8518;53.236;10.384;2023-08-31T01:13:23;15.87;;;14.07;;
16800;SDS011;8518;53.236;10.384;2023-08-31T01:19:30;16.73;;;14.67;;
16800;SDS011;8518;53.236;10.384;2023-08-31T01:25:35;18.00;;;15.60;;
16800;SDS011;8518;53.236;10.384;2023-08-31T01:28:07;16.87;;;15.03;;
16800;SDS011;8518;53.236;10.384;2023-08-31T01:30:34;17.63;;;15.83;;
16800;SDS011;8518;53.236;10.384;2023-08-31T01:33:05;16.67;;;14.93;;
16800;SDS011;8518;53.236;10.384;2023-08-31T01:35:33;16.20;;;14.47;;
16800;SDS011;8518;53.236;10.384;2023-08-31T01:38:09;16.57;;;14.63;;
16800;SDS011;8518;53.236;10.384;2023-08-31T01:40:38;17.17;;;14.40;;
16800;SDS011;8518;53.236;10.384;2023-08-31T01:43:09;19.03;;;15.13;;
16800;SDS011;8518;53.236;10.384;2023-08-31T01:45:43;18.00;;;15.27;;
16800;SDS011;8518;53.236;10.384;2023-08-31T01:48:11;16.17;;;14.57;;
16800;SDS011;8518;53.236;10.384;2023-08-31T01:50:39;18.07;;;15.00;;
16800;SDS011;8518;53.236;10.384;2023-08-31T01:53:04;18.70;;;14.67;;
16800;SDS011;8518;53.236;10.384;2023-08-31T01:55:31;17.27;;;14.63;;
16800;SDS011;8518;53.236;10.384;2023-08-31T01:58:00;15.73;;;14.13;;
16800;SDS011;8518;53.236;10.384;2023-08-31T02:00:28;16.30;;;14.03;;
16800;SDS011;8518;53.236;10.384;2023-08-31T02:02:59;16.67;;;14.03;;
16800;SDS011;8518;53.236;10.384;2023-08-31T02:05:28;18.87;;;14.43;;
16800;SDS011;8518;53.236;10.384;2023-08-31T02:07:58;15.77;;;12.83;;
16800;SDS011;8518;53.236;10.384;2023-08-31T02:10:23;18.10;;;14.33;;
16800;SDS011;8518;53.236;10.384;2023-08-31T02:12:54;15.60;;;12.97;;
16800;SDS011;8518;53.236;10.384;2023-08-31T02:15:23;16.30;;;13.20;;
16800;SDS011;8518;53.236;10.384;2023-08-31T02:21:10;16.53;;;12.43;;
16800;SDS011;8518;53.236;10.384;2023-08-31T02:23:36;16.30;;;13.43;;
16800;SDS011;8518;53.236;10.384;2023-08-31T02:29:26;15.07;;;12.23;;
16800;SDS011;8518;53.236;10.384;2023-08-31T02:35:15;14.83;;;11.17;;
16800;SDS011;8518;53.236;10.384;2023-08-31T02:41:04;16.63;;;12.43;;
16800;SDS011;8518;53.236;10.384;2023-08-31T02:43:29;17.17;;;12.27;;
16800;SDS011;8518;53.236;10.384;2023-08-31T02:49:26;14.33;;;11.70;;
16800;SDS011;8518;53.236;10.384;2023-08-31T02:51:56;13.23;;;10.70;;
16800;SDS011;8518;53.236;10.384;2023-08-31T02:54:23;15.43;;;10.43;;
16800;SDS011;8518;53.236;10.384;2023-08-31T03:00:13;12.23;;;9.57;;
16800;SDS011;8518;53.236;10.384;2023-08-31T03:02:40;14.73;;;9.97;;
16800;SDS011;8518;53.236;10.384;2023-08-31T03:05:09;14.90;;;9.73;;
16800;SDS011;8518;53.236;10.384;2023-08-31T03:11:01;15.03;;;10.13;;
16800;SDS011;8518;53.236;10.384;2023-08-31T03:13:29;11.10;;;9.20;;
16800;SDS011;8518;53.236;10.384;2023-08-31T03:19:19;13.70;;;9.40;;
16800;SDS011;8518;53.236;10.384;2023-08-31T03:21:48;11.73;;;9.00;;
16800;SDS011;8518;53.236;10.384;2023-08-31T03:24:15;13.20;;;9.00;;
16800;SDS011;8518;53.236;10.384;2023-08-31T03:30:03;12.70;;;9.10;;
16800;SDS011;8518;53.236;10.384;2023-08-31T03:32:46;12.03;;;9.20;;
16800;SDS011;8518;53.236;10.384;2023-08-31T03:35:13;11.00;;;7.80;;
16800;SDS011;8518;53.236;10.384;2023-08-31T03:41:06;10.53;;;7.83;;
16800;SDS011;8518;53.236;10.384;2023-08-31T03:43:33;11.83;;;8.53;;
16800;SDS011;8518;53.236;10.384;2023-08-31T03:49:21;9.83;;;7.17;;
16800;SDS011;8518;53.236;10.384;2023-08-31T03:51:46;10.57;;;7.67;;
16800;SDS011;8518;53.236;10.384;2023-08-31T03:54:12;10.43;;;7.73;;
16800;SDS011;8518;53.236;10.384;2023-08-31T04:00:03;10.37;;;7.47;;
16800;SDS011;8518;53.236;10.384;2023-08-31T04:06:13;11.17;;;7.70;;
16800;SDS011;8518;53.236;10.384;2023-08-31T04:08:38;10.37;;;6.70;;
16800;SDS011;8518;53.236;10.384;2023-08-31T04:11:25;10.47;;;6.90;;
16800;SDS011;8518;53.236;10.384;2023-08-31T04:13:51;13.00;;;7.80;;
16800;SDS011;8518;53.236;10.384;2023-08-31T04:19:39;8.47;;;6.60;;
16800;SDS011;8518;53.236;10.384;2023-08-31T04:25:28;11.30;;;7.60;;
16800;SDS011;8518;53.236;10.384;2023-08-31T04:28:08;12.70;;;7.30;;
16800;SDS011;8518;53.236;10.384;2023-08-31T04:30:41;10.40;;;7.57;;
16800;SDS011;8518;53.236;10.384;2023-08-31T04:33:15;9.67;;;7.57;;
16800;SDS011;8518;53.236;10.384;2023-08-31T04:35:47;10.50;;;7.47;;
16800;SDS011;8518;53.236;10.384;2023-08-31T04:38:16;9.87;;;7.53;;
16800;SDS011;8518;53.236;10.384;2023-08-31T04:40:42;10.47;;;7.93;;
16800;SDS011;8518;53.236;10.384;2023-08-31T04:43:08;12.97;;;8.40;;
16800;SDS011;8518;53.236;10.384;2023-08-31T04:45:35;12.97;;;8.20;;
16800;SDS011;8518;53.236;10.384;2023-08-31T04:48:02;12.03;;;9.10;;
16800;SDS011;8518;53.236;10.384;2023-08-31T04:50:28;16.00;;;8.70;;
16800;SDS011;8518;53.236;10.384;2023-08-31T04:52:54;12.97;;;8.97;;
16800;SDS011;8518;53.236;10.384;2023-08-31T04:55:21;13.80;;;9.83;;
16800;SDS011;8518;53.236;10.384;2023-08-31T05:01:09;14.67;;;10.00;;
16800;SDS011;8518;53.236;10.384;2023-08-31T05:03:35;15.37;;;10.90;;
16800;SDS011;8518;53.236;10.384;2023-08-31T05:09:29;14.70;;;9.97;;
16800;SDS011;8518;53.236;10.384;2023-08-31T05:12:01;14.60;;;9.87;;
16800;SDS011;8518;53.236;10.384;2023-08-31T05:14:30;17.93;;;9.93;;
16800;SDS011;8518;53.236;10.384;2023-08-31T05:20:18;12.97;;;8.97;;
16800;SDS011;8518;53.236;10.384;2023-08-31T05:22:43;13.07;;;9.53;;
16800;SDS011;8518;53.236;10.384;2023-08-31T05:25:11;12.97;;;8.93;;
16800;SDS011;8518;53.236;10.384;2023-08-31T05:31:00;11.00;;;8.57;;
16800;SDS011;8518;53.236;10.384;2023-08-31T05:37:11;9.70;;;8.57;;
16800;SDS011;8518;53.236;10.384;2023-08-31T05:39:37;10.67;;;8.03;;
16800;SDS011;8518;53.236;10.384;2023-08-31T05:42:04;9.37;;;7.80;;
16800;SDS011;8518;53.236;10.384;2023-08-31T05:44:36;11.93;;;7.83;;
16800;SDS011;8518;53.236;10.384;2023-08-31T05:50:24;8.70;;;6.93;;
16800;SDS011;8518;53.236;10.384;2023-08-31T05:52:50;9.90;;;6.73;;
16800;SDS011;8518;53.236;10.384;2023-08-31T05:55:16;11.53;;;6.50;;
16800;SDS011;8518;53.236;10.384;2023-08-31T06:01:07;11.23;;;6.47;;
16800;SDS011;8518;53.236;10.384;2023-08-31T06:03:32;6.40;;;5.50;;
16800;SDS011;8518;53.236;10.384;2023-08-31T06:09:20;7.70;;;5.30;;
16800;SDS011;8518;53.236;10.384;2023-08-31T06:11:47;6.57;;;5.43;;
16800;SDS011;8518;53.236;10.384;2023-08-31T06:14:13;7.53;;;4.90;;
16800;SDS011;8518;53.236;10.384;2023-08-31T06:20:01;9.93;;;5.60;;
16800;SDS011;8518;53.236;10.384;2023-08-31T06:22:30;10.10;;;5.40;;
16800;SDS011;8518;53.236;10.384;2023-08-31T06:24:55;7.43;;;5.37;;
16800;SDS011;8518;53.236;10.384;2023-08-31T06:30:43;5.80;;;4.73;;
16800;SDS011;8518;53.236;10.384;2023-08-31T06:33:12;6.93;;;5.90;;
16800;SDS011;8518;53.236;10.384;2023-08-31T06:35:40;6.80;;;5.30;;
16800;SDS011;8518;53.236;10.384;2023-08-31T06:38:06;8.60;;;5.50;;
16800;SDS011;8518;53.236;10.384;2023-08-31T06:40:32;5.50;;;4.80;;
16800;SDS011;8518;53.236;10.384;2023-08-31T06:42:58;8.23;;;5.00;;
16800;SDS011;8518;53.236;10.384;2023-08-31T06:45:25;9.87;;;6.00;;
16800;SDS011;8518;53.236;10.384;2023-08-31T06:47:52;7.27;;;5.40;;
16800;SDS011;8518;53.236;10.384;2023-08-31T06:50:18;7.87;;;4.73;;
16800;SDS011;8518;53.236;10.384;2023-08-31T06:52:43;7.17;;;5.03;;
16800;SDS011;8518;53.236;10.384;2023-08-31T06:55:11;6.87;;;4.90;;
16800;SDS011;8518;53.236;10.384;2023-08-31T07:01:00;7.70;;;5.33;;
16800;SDS011;8518;53.236;10.384;2023-08-31T07:03:30;6.17;;;4.70;;
16800;SDS011;8518;53.236;10.384;2023-08-31T07:09:18;7.57;;;5.07;;
16800;SDS011;8518;53.236;10.384;2023-08-31T07:11:44;6.83;;;4.80;;
16800;SDS011;8518;53.236;10.384;2023-08-31T07:14:12;7.63;;;4.60;;
16800;SDS011;8518;53.236;10.384;2023-08-31T07:20:00;7.70;;;4.43;;
16800;SDS011;8518;53.236;10.384;2023-08-31T07:22:25;5.70;;;4.20;;
16800;SDS011;8518;53.236;10.384;2023-08-31T07:24:51;4.97;;;3.83;;
16800;SDS011;8518;53.236;10.384;2023-08-31T07:30:42;6.40;;;3.93;;
16800;SDS011;8518;53.236;10.384;2023-08-31T07:33:08;3.90;;;3.27;;
16800;SDS011;8518;53.236;10.384;2023-08-31T07:35:35;7.03;;;3.77;;
16800;SDS011;8518;53.236;10.384;2023-08-31T07:38:00;6.33;;;3.50;;
16800;SDS011;8518;53.236;10.384;2023-08-31T07:40:26;6.77;;;3.37;;
16800;SDS011;8518;53.236;10.384;2023-08-31T07:42:52;4.27;;;3.30;;
16800;SDS011;8518;53.236;10.384;2023-08-31T07:45:21;4.00;;;3.00;;
16800;SDS011;8518;53.236;10.384;2023-08-31T07:51:09;5.63;;;3.20;;
16800;SDS011;8518;53.236;10.384;2023-08-31T07:56:57;6.60;;;2.70;;
16800;SDS011;8518;53.236;10.384;2023-08-31T07:59:26;5.23;;;2.97;;
16800;SDS011;8518;53.236;10.384;2023-08-31T08:01:52;3.87;;;3.00;;
16800;SDS011;8518;53.236;10.384;2023-08-31T08:04:18;5.83;;;3.30;;
16800;SDS011;8518;53.236;10.384;2023-08-31T08:10:06;6.33;;;3.97;;
16800;SDS011;8518;53.236;10.384;2023-08-31T08:12:40;5.93;;;4.23;;
16800;SDS011;8518;53.236;10.384;2023-08-31T08:15:17;9.53;;;4.97;;
16800;SDS011;8518;53.236;10.384;2023-08-31T08:21:05;6.67;;;4.53;;
16800;SDS011;8518;53.236;10.384;2023-08-31T08:23:31;6.40;;;5.10;;
16800;SDS011;8518;53.236;10.384;2023-08-31T08:29:18;5.30;;;4.13;;
16800;SDS011;8518;53.236;10.384;2023-08-31T08:31:44;3.73;;;3.13;;
16800;SDS011;8518;53.236;10.384;2023-08-31T08:34:12;5.73;;;3.03;;
16800;SDS011;8518;53.236;10.384;2023-08-31T08:36:38;6.88;;;3.33;;
16800;SDS011;8518;53.236;10.384;2023-08-31T08:39:04;2.95;;;2.50;;
16800;SDS011;8518;53.236;10.384;2023-08-31T08:41:29;3.35;;;2.38;;
16800;SDS011;8518;53.236;10.384;2023-08-31T08:44:00;3.53;;;1.70;;
16800;SDS011;8518;53.236;10.384;2023-08-31T08:49:50;4.05;;;1.40;;
16800;SDS011;8518;53.236;10.384;2023-08-31T08:52:19;2.30;;;1.60;;
16800;SDS011;8518;53.236;10.384;2023-08-31T08:54:46;3.80;;;1.42;;
16800;SDS011;8518;53.236;10.384;2023-08-31T09:00:37;2.17;;;1.57;;
16800;SDS011;8518;53.236;10.384;2023-08-31T09:03:05;2.60;;;1.30;;
16800;SDS011;8518;53.236;10.384;2023-08-31T09:05:35;3.72;;;1.40;;
16800;SDS011;8518;53.236;10.384;2023-08-31T09:08:02;2.95;;;1.30;;
16800;SDS011;8518;53.236;10.384;2023-08-31T09:10:38;3.28;;;1.10;;
16800;SDS011;8518;53.236;10.384;2023-08-31T09:13:12;4.07;;;1.45;;
16800;SDS011;8518;53.236;10.384;2023-08-31T09:15:49;3.25;;;1.30;;
16800;SDS011;8518;53.236;10.384;2023-08-31T09:18:31;2.85;;;1.40;;
16800;SDS011;8518;53.236;10.384;2023-08-31T09:20:57;2.47;;;1.65;;
16800;SDS011;8518;53.236;10.384;2023-08-31T09:23:25;1.92;;;1.38;;
16800;SDS011;8518;53.236;10.384;2023-08-31T09:25:54;2.40;;;1.33;;
16800;SDS011;8518;53.236;10.384;2023-08-31T09:28:21;2.90;;;1.42;;
16800;SDS011;8518;53.236;10.384;2023-08-31T09:30:48;2.08;;;1.00;;
16800;SDS011;8518;53.236;10.384;2023-08-31T09:33:15;1.52;;;1.08;;
16800;SDS011;8518;53.236;10.384;2023-08-31T09:35:47;2.43;;;1.20;;
16800;SDS011;8518;53.236;10.384;2023-08-31T09:38:22;1.47;;;1.23;;
16800;SDS011;8518;53.236;10.384;2023-08-31T09:40:48;2.97;;;1.50;;
16800;SDS011;8518;53.236;10.384;2023-08-31T09:43:20;2.97;;;1.70;;
16800;SDS011;8518;53.236;10.384;2023-08-31T09:45:47;3.23;;;1.50;;
16800;SDS011;8518;53.236;10.384;2023-08-31T09:48:14;3.20;;;1.83;;
16800;SDS011;8518;53.236;10.384;2023-08-31T09:50:47;2.10;;;1.87;;
16800;SDS011;8518;53.236;10.384;2023-08-31T09:53:15;2.73;;;2.03;;
16800;SDS011;8518;53.236;10.384;2023-08-31T09:55:44;3.60;;;2.13;;
16800;SDS011;8518;53.236;10.384;2023-08-31T09:58:13;3.73;;;1.90;;
16800;SDS011;8518;53.236;10.384;2023-08-31T10:00:43;3.43;;;1.60;;
16800;SDS011;8518;53.236;10.384;2023-08-31T10:03:12;1.43;;;1.20;;
16800;SDS011;8518;53.236;10.384;2023-08-31T10:05:43;2.03;;;1.10;;
16800;SDS011;8518;53.236;10.384;2023-08-31T10:08:10;2.10;;;0.87;;
16800;SDS011;8518;53.236;10.384;2023-08-31T10:10:41;1.67;;;0.87;;
16800;SDS011;8518;53.236;10.384;2023-08-31T10:13:08;1.55;;;0.63;;
16800;SDS011;8518;53.236;10.384;2023-08-31T10:15:34;2.30;;;1.33;;
16800;SDS011;8518;53.236;10.384;2023-08-31T10:18:04;1.58;;;0.90;;
16800;SDS011;8518;53.236;10.384;2023-08-31T10:20:33;1.20;;;0.70;;
16800;SDS011;8518;53.236;10.384;2023-08-31T10:23:06;1.50;;;0.60;;
16800;SDS011;8518;53.236;10.384;2023-08-31T10:28:21;2.13;;;1.02;;
16800;SDS011;8518;53.236;10.384;2023-08-31T10:31:08;0.80;;;0.80;;
16800;SDS011;8518;53.236;10.384;2023-08-31T10:33:42;2.22;;;1.13;;
16800;SDS011;8518;53.236;10.384;2023-08-31T10:38:41;2.30;;;1.40;;
16800;SDS011;8518;53.236;10.384;2023-08-31T10:41:24;1.40;;;1.30;;
16800;SDS011;8518;53.236;10.384;2023-08-31T10:43:54;2.60;;;1.60;;
16800;SDS011;8518;53.236;10.384;2023-08-31T10:49:50;1.70;;;1.30;;
16800;SDS011;8518;53.236;10.384;2023-08-31T10:52:18;2.20;;;1.40;;
16800;SDS011;8518;53.236;10.384;2023-08-31T10:54:46;1.30;;;1.20;;
16800;SDS011;8518;53.236;10.384;2023-08-31T11:00:54;2.17;;;1.10;;
16800;SDS011;8518;53.236;10.384;2023-08-31T11:03:21;1.47;;;1.00;;
16800;SDS011;8518;53.236;10.384;2023-08-31T11:05:51;2.13;;;1.00;;
16800;SDS011;8518;53.236;10.384;2023-08-31T11:08:22;1.45;;;0.90;;
16800;SDS011;8518;53.236;10.384;2023-08-31T11:10:48;2.20;;;0.60;;
16800;SDS011;8518;53.236;10.384;2023-08-31T11:13:20;1.48;;;0.68;;
16800;SDS011;8518;53.236;10.384;2023-08-31T11:15:49;0.73;;;0.63;;
16800;SDS011;8518;53.236;10.384;2023-08-31T11:18:16;1.65;;;0.80;;
16800;SDS011;8518;53.236;10.384;2023-08-31T11:20:45;1.85;;;0.68;;
16800;SDS011;8518;53.236;10.384;2023-08-31T11:23:13;0.93;;;0.70;;
16800;SDS011;8518;53.236;10.384;2023-08-31T11:25:41;1.20;;;0.70;;
16800;SDS011;8518;53.236;10.384;2023-08-31T11:28:07;1.65;;;0.68;;
16800;SDS011;8518;53.236;10.384;2023-08-31T11:30:33;1.33;;;0.88;;
16800;SDS011;8518;53.236;10.384;2023-08-31T11:33:08;1.08;;;0.70;;
16800;SDS011;8518;53.236;10.384;2023-08-31T11:35:37;0.60;;;0.60;;
16800;SDS011;8518;53.236;10.384;2023-08-31T11:38:08;1.42;;;0.70;;
16800;SDS011;8518;53.236;10.384;2023-08-31T11:40:36;1.60;;;0.90;;
16800;SDS011;8518;53.236;10.384;2023-08-31T11:43:02;1.77;;;0.70;;
16800;SDS011;8518;53.236;10.384;2023-08-31T11:45:30;1.15;;;0.60;;
16800;SDS011;8518;53.236;10.384;2023-08-31T11:47:57;1.05;;;0.70;;
16800;SDS011;8518;53.236;10.384;2023-08-31T11:50:24;1.48;;;0.90;;
16800;SDS011;8518;53.236;10.384;2023-08-31T11:52:51;1.48;;;0.80;;
16800;SDS011;8518;53.236;10.384;2023-08-31T11:55:18;0.80;;;0.80;;
16800;SDS011;8518;53.236;10.384;2023-08-31T12:01:06;1.13;;;0.70;;
16800;SDS011;8518;53.236;10.384;2023-08-31T12:03:41;1.85;;;0.90;;
16800;SDS011;8518;53.236;10.384;2023-08-31T12:09:32;1.55;;;0.75;;
16800;SDS011;8518;53.236;10.384;2023-08-31T12:15:23;1.58;;;0.90;;
16800;SDS011;8518;53.236;10.384;2023-08-31T12:18:00;1.75;;;1.10;;
16800;SDS011;8518;53.236;10.384;2023-08-31T12:20:33;1.08;;;0.75;;
16800;SDS011;8518;53.236;10.384;2023-08-31T12:23:06;1.73;;;0.80;;
16800;SDS011;8518;53.236;10.384;2023-08-31T12:25:33;3.08;;;0.93;;
16800;SDS011;8518;53.236;10.384;2023-08-31T12:28:07;2.60;;;0.80;;
16800;SDS011;8518;53.236;10.384;2023-08-31T12:30:33;1.75;;;0.73;;
16800;SDS011;8518;53.236;10.384;2023-08-31T12:32:58;1.33;;;1.02;;
16800;SDS011;8518;53.236;10.384;2023-08-31T12:35:24;2.00;;;1.23;;
16800;SDS011;8518;53.236;10.384;2023-08-31T12:37:50;2.05;;;1.05;;
16800;SDS011;8518;53.236;10.384;2023-08-31T12:40:18;3.08;;;1.50;;
16800;SDS011;8518;53.236;10.384;2023-08-31T12:42:47;4.80;;;1.63;;
16800;SDS011;8518;53.236;10.384;2023-08-31T12:45:13;3.20;;;0.90;;
16800;SDS011;8518;53.236;10.384;2023-08-31T12:51:03;1.23;;;0.88;;
16800;SDS011;8518;53.236;10.384;2023-08-31T12:53:32;4.35;;;1.45;;
16800;SDS011;8518;53.236;10.384;2023-08-31T12:59:24;2.15;;;1.00;;
16800;SDS011;8518;53.236;10.384;2023-08-31T13:01:49;2.55;;;0.70;;
16800;SDS011;8518;53.236;10.384;2023-08-31T13:04:15;1.33;;;1.08;;
16800;SDS011;8518;53.236;10.384;2023-08-31T13:10:03;1.75;;;0.80;;
16800;SDS011;8518;53.236;10.384;2023-08-31T13:12:30;3.80;;;1.08;;
16800;SDS011;8518;53.236;10.384;2023-08-31T13:14:58;3.10;;;1.30;;
16800;SDS011;8518;53.236;10.384;2023-08-31T13:20:50;1.02;;;0.65;;
16800;SDS011;8518;53.236;10.384;2023-08-31T13:23:20;1.05;;;0.60;;
16800;SDS011;8518;53.236;10.384;2023-08-31T13:25:46;1.45;;;0.80;;
16800;SDS011;8518;53.236;10.384;2023-08-31T13:28:12;2.15;;;0.77;;
16800;SDS011;8518;53.236;10.384;2023-08-31T13:30:38;1.33;;;0.88;;
16800;SDS011;8518;53.236;10.384;2023-08-31T13:33:07;1.10;;;0.68;;
16800;SDS011;8518;53.236;10.384;2023-08-31T13:35:42;1.05;;;0.63;;
16800;SDS011;8518;53.236;10.384;2023-08-31T13:38:08;1.75;;;0.75;;
16800;SDS011;8518;53.236;10.384;2023-08-31T13:40:34;2.22;;;0.60;;
16800;SDS011;8518;53.236;10.384;2023-08-31T13:43:02;1.27;;;0.55;;
16800;SDS011;8518;53.236;10.384;2023-08-31T13:45:29;2.53;;;0.80;;
16800;SDS011;8518;53.236;10.384;2023-08-31T13:47:58;1.23;;;0.60;;
16800;SDS011;8518;53.236;10.384;2023-08-31T13:50:25;0.57;;;0.32;;
16800;SDS011;8518;53.236;10.384;2023-08-31T13:52:52;0.73;;;0.50;;
16800;SDS011;8518;53.236;10.384;2023-08-31T13:55:17;1.42;;;0.40;;
16800;SDS011;8518;53.236;10.384;2023-08-31T14:01:06;0.80;;;0.50;;
16800;SDS011;8518;53.236;10.384;2023-08-31T14:03:32;2.47;;;0.70;;
16800;SDS011;8518;53.236;10.384;2023-08-31T14:09:20;0.50;;;0.40;;
16800;SDS011;8518;53.236;10.384;2023-08-31T14:15:08;1.60;;;0.50;;
16800;SDS011;8518;53.236;10.384;2023-08-31T14:20:58;1.50;;;0.60;;
16800;SDS011;8518;53.236;10.384;2023-08-31T14:23:29;0.70;;;0.47;;
16800;SDS011;8518;53.236;10.384;2023-08-31T14:29:18;1.20;;;0.40;;
16800;SDS011;8518;53.236;10.384;2023-08-31T14:35:06;1.80;;;0.50;;
16800;SDS011;8518;53.236;10.384;2023-08-31T14:40:57;1.63;;;0.43;;
16800;SDS011;8518;53.236;10.384;2023-08-31T14:43:23;2.13;;;0.53;;
16800;SDS011;8518;53.236;10.384;2023-08-31T14:45:50;1.17;;;0.50;;
16800;SDS011;8518;53.236;10.384;2023-08-31T14:48:22;2.13;;;0.47;;
16800;SDS011;8518;53.236;10.384;2023-08-31T14:50:49;2.30;;;0.50;;
16800;SDS011;8518;53.236;10.384;2023-08-31T14:53:21;1.07;;;0.57;;
16800;SDS011;8518;53.236;10.384;2023-08-31T14:55:55;1.57;;;0.50;;
16800;SDS011;8518;53.236;10.384;2023-08-31T14:58:44;0.97;;;0.40;;
16800;SDS011;8518;53.236;10.384;2023-08-31T15:01:11;1.27;;;0.73;;
16800;SDS011;8518;53.236;10.384;2023-08-31T15:03:37;0.87;;;0.50;;
16800;SDS011;8518;53.236;10.384;2023-08-31T15:09:25;0.93;;;0.70;;
16800;SDS011;8518;53.236;10.384;2023-08-31T15:11:51;2.17;;;0.60;;
16800;SDS011;8518;53.236;10.384;2023-08-31T15:14:19;1.47;;;0.53;;
16800;SDS011;8518;53.236;10.384;2023-08-31T15:20:07;1.63;;;0.50;;
16800;SDS011;8518;53.236;10.384;2023-08-31T15:25:59;1.27;;;0.40;;
16800;SDS011;8518;53.236;10.384;2023-08-31T15:28:30;0.93;;;0.40;;
16800;SDS011;8518;53.236;10.384;2023-08-31T15:30:56;1.17;;;0.40;;
16800;SDS011;8518;53.236;10.384;2023-08-31T15:33:22;1.80;;;0.47;;
16800;SDS011;8518;53.236;10.384;2023-08-31T15:35:51;0.77;;;0.40;;
16800;SDS011;8518;53.236;10.384;2023-08-31T15:38:47;1.30;;;0.53;;
16800;SDS011;8518;53.236;10.384;2023-08-31T15:41:17;1.07;;;0.53;;
16800;SDS011;8518;53.236;10.384;2023-08-31T15:43:53;2.47;;;0.60;;
16800;SDS011;8518;53.236;10.384;2023-08-31T15:49:41;2.00;;;0.80;;
16800;SDS011;8518;53.236;10.384;2023-08-31T15:52:08;1.10;;;0.53;;
16800;SDS011;8518;53.236;10.384;2023-08-31T15:54:34;1.13;;;0.70;;
16800;SDS011;8518;53.236;10.384;2023-08-31T16:00:23;0.80;;;0.53;;
16800;SDS011;8518;53.236;10.384;2023-08-31T16:02:50;1.23;;;0.53;;
16800;SDS011;8518;53.236;10.384;2023-08-31T16:05:16;1.07;;;0.50;;
16800;SDS011;8518;53.236;10.384;2023-08-31T16:11:08;1.27;;;0.43;;
16800;SDS011;8518;53.236;10.384;2023-08-31T16:14:00;1.40;;;0.50;;
16800;SDS011;8518;53.236;10.384;2023-08-31T16:19:49;0.93;;;0.70;;
16800;SDS011;8518;53.236;10.384;2023-08-31T16:22:22;1.07;;;0.63;;
16800;SDS011;8518;53.236;10.384;2023-08-31T16:24:47;1.90;;;0.50;;
16800;SDS011;8518;53.236;10.384;2023-08-31T16:30:40;1.30;;;0.50;;
16800;SDS011;8518;53.236;10.384;2023-08-31T16:37:12;2.40;;;0.60;;
16800;SDS011;8518;53.236;10.384;2023-08-31T16:39:38;2.07;;;0.60;;
16800;SDS011;8518;53.236;10.384;2023-08-31T16:42:04;0.87;;;0.53;;
16800;SDS011;8518;53.236;10.384;2023-08-31T16:44:29;1.33;;;0.40;;
16800;SDS011;8518;53.236;10.384;2023-08-31T16:50:31;0.77;;;0.50;;
16800;SDS011;8518;53.236;10.384;2023-08-31T16:56:21;0.50;;;0.40;;
16800;SDS011;8518;53.236;10.384;2023-08-31T16:58:59;1.23;;;0.70;;
16800;SDS011;8518;53.236;10.384;2023-08-31T17:01:29;2.63;;;0.80;;
16800;SDS011;8518;53.236;10.384;2023-08-31T17:10:18;1.20;;;0.60;;
16800;SDS011;8518;53.236;10.384;2023-08-31T17:12:45;0.80;;;0.40;;
16800;SDS011;8518;53.236;10.384;2023-08-31T17:15:16;2.30;;;0.50;;
16800;SDS011;8518;53.236;10.384;2023-08-31T17:18:09;1.40;;;0.60;;
16800;SDS011;8518;53.236;10.384;2023-08-31T17:21:05;1.77;;;0.40;;
16800;SDS011;8518;53.236;10.384;2023-08-31T17:26:54;0.77;;;0.50;;
16800;SDS011;8518;53.236;10.384;2023-08-31T17:29:20;1.33;;;0.57;;
16800;SDS011;8518;53.236;10.384;2023-08-31T17:31:45;0.83;;;0.50;;
16800;SDS011;8518;53.236;10.384;2023-08-31T17:34:11;1.07;;;0.60;;
16800;SDS011;8518;53.236;10.384;2023-08-31T17:40:03;1.03;;;0.50;;
16800;SDS011;8518;53.236;10.384;2023-08-31T17:42:38;1.93;;;0.50;;
16800;SDS011;8518;53.236;10.384;2023-08-31T17:45:08;0.77;;;0.50;;
16800;SDS011;8518;53.236;10.384;2023-08-31T17:50:57;1.83;;;0.70;;
16800;SDS011;8518;53.236;10.384;2023-08-31T17:53:22;0.40;;;0.40;;
16800;SDS011;8518;53.236;10.384;2023-08-31T17:55:48;1.07;;;0.50;;
16800;SDS011;8518;53.236;10.384;2023-08-31T17:58:17;1.40;;;0.60;;
16800;SDS011;8518;53.236;10.384;2023-08-31T18:00:46;0.90;;;0.60;;
16800;SDS011;8518;53.236;10.384;2023-08-31T18:03:12;3.53;;;0.60;;
16800;SDS011;8518;53.236;10.384;2023-08-31T18:05:47;0.77;;;0.50;;
16800;SDS011;8518;53.236;10.384;2023-08-31T18:08:19;1.47;;;0.60;;
16800;SDS011;8518;53.236;10.384;2023-08-31T18:10:52;0.57;;;0.40;;
16800;SDS011;8518;53.236;10.384;2023-08-31T18:13:20;1.10;;;0.70;;
16800;SDS011;8518;53.236;10.384;2023-08-31T18:15:50;1.60;;;0.60;;
16800;SDS011;8518;53.236;10.384;2023-08-31T18:18:25;0.73;;;0.50;;
16800;SDS011;8518;53.236;10.384;2023-08-31T18:27:36;0.77;;;0.40;;
16800;SDS011;8518;53.236;10.384;2023-08-31T18:30:04;0.50;;;0.30;;
16800;SDS011;8518;53.236;10.384;2023-08-31T18:32:31;2.50;;;0.73;;
16800;SDS011;8518;53.236;10.384;2023-08-31T18:35:07;1.10;;;0.63;;
16800;SDS011;8518;53.236;10.384;2023-08-31T18:40:41;1.17;;;0.60;;
16800;SDS011;8518;53.236;10.384;2023-08-31T18:43:40;1.10;;;0.50;;
16800;SDS011;8518;53.236;10.384;2023-08-31T18:50:00;1.63;;;0.60;;
16800;SDS011;8518;53.236;10.384;2023-08-31T18:52:50;0.73;;;0.60;;
16800;SDS011;8518;53.236;10.384;2023-08-31T18:55:25;1.73;;;0.80;;
16800;SDS011;8518;53.236;10.384;2023-08-31T18:57:51;1.97;;;0.90;;
16800;SDS011;8518;53.236;10.384;2023-08-31T19:00:17;2.00;;;0.70;;
16800;SDS011;8518;53.236;10.384;2023-08-31T19:02:45;1.60;;;0.77;;
16800;SDS011;8518;53.236;10.384;2023-08-31T19:05:12;2.80;;;0.70;;
16800;SDS011;8518;53.236;10.384;2023-08-31T19:11:06;2.43;;;0.53;;
16800;SDS011;8518;53.236;10.384;2023-08-31T19:13:36;1.83;;;0.70;;
16800;SDS011;8518;53.236;10.384;2023-08-31T19:19:26;1.77;;;0.70;;
16800;SDS011;8518;53.236;10.384;2023-08-31T19:25:14;1.73;;;0.83;;
16800;SDS011;8518;53.236;10.384;2023-08-31T19:31:06;1.23;;;0.90;;
16800;SDS011;8518;53.236;10.384;2023-08-31T19:33:32;0.93;;;0.67;;